createdAt,value
2017-10-31T00:01:21.950Z,19.10
2017-10-31T00:03:50.072Z,20.87
2017-10-31T00:06:18.281Z,14.77
2017-10-31T00:08:46.414Z,16.07
2017-10-31T00:11:14.568Z,15.77
2017-10-31T00:13:42.728Z,17.50
2017-10-31T00:16:10.883Z,24.03
2017-10-31T00:18:39.068Z,20.00
2017-10-31T00:21:08.004Z,18.77
2017-10-31T00:23:36.268Z,23.70
2017-10-31T00:26:04.438Z,21.53
2017-10-31T00:28:32.580Z,19.53
2017-10-31T00:31:01.542Z,18.57
2017-10-31T00:33:29.754Z,19.63
2017-10-31T00:35:58.671Z,16.47
2017-10-31T00:38:26.877Z,22.23
2017-10-31T00:40:55.060Z,17.40
2017-10-31T00:43:23.190Z,21.93
2017-10-31T00:45:51.331Z,15.23
2017-10-31T00:48:19.656Z,22.93
2017-10-31T00:50:48.508Z,22.27
2017-10-31T00:53:17.466Z,23.37
2017-10-31T00:55:46.377Z,20.33
2017-10-31T00:58:15.516Z,16.83
2017-10-31T01:00:43.669Z,18.57
2017-10-31T01:03:11.801Z,15.23
2017-10-31T01:05:39.993Z,17.80
2017-10-31T01:08:08.941Z,24.83
2017-10-31T01:10:37.069Z,21.43
2017-10-31T01:13:05.203Z,17.03
2017-10-31T01:15:34.197Z,16.93
2017-10-31T01:18:03.384Z,18.77
2017-10-31T01:20:31.529Z,17.70
2017-10-31T01:22:59.734Z,26.00
2017-10-31T01:25:27.913Z,22.10
2017-10-31T01:27:56.625Z,16.70
2017-10-31T01:30:25.505Z,18.90
2017-10-31T01:32:53.722Z,21.70
2017-10-31T01:35:21.879Z,23.90
2017-10-31T01:37:50.030Z,22.73
2017-10-31T01:40:18.937Z,16.30
2017-10-31T01:42:47.113Z,19.30
2017-10-31T01:45:15.243Z,19.97
2017-10-31T01:47:43.478Z,19.97
2017-10-31T01:50:11.653Z,20.10
2017-10-31T01:52:39.798Z,16.87
2017-10-31T01:55:07.936Z,18.33
2017-10-31T01:57:36.075Z,25.63
2017-10-31T02:00:04.276Z,18.10
2017-10-31T02:02:32.441Z,20.30
2017-10-31T02:05:00.558Z,17.33
2017-10-31T02:07:28.766Z,18.07
2017-10-31T02:09:56.894Z,19.00
2017-10-31T02:12:25.313Z,21.63
2017-10-31T02:14:53.700Z,17.30
2017-10-31T02:17:21.829Z,16.87
2017-10-31T02:19:49.974Z,15.03
2017-10-31T02:22:18.101Z,24.03
2017-10-31T02:24:46.254Z,15.00
2017-10-31T02:27:14.383Z,20.90
2017-10-31T02:29:42.545Z,18.33
2017-10-31T02:32:10.797Z,14.97
2017-10-31T02:34:38.915Z,15.40
2017-10-31T02:37:07.138Z,20.40
2017-10-31T02:39:35.465Z,17.03
2017-10-31T02:42:03.584Z,16.60
2017-10-31T02:44:31.732Z,18.20
2017-10-31T02:46:59.929Z,14.77
2017-10-31T02:49:28.063Z,33.50
2017-10-31T02:51:56.234Z,18.17
2017-10-31T02:54:24.385Z,21.67
2017-10-31T02:56:52.544Z,29.23
2017-10-31T02:59:20.713Z,25.10
2017-10-31T03:01:48.944Z,16.33
2017-10-31T03:04:17.878Z,20.83
2017-10-31T03:06:46.007Z,20.07
2017-10-31T03:09:14.639Z,18.47
2017-10-31T03:11:42.808Z,16.40
2017-10-31T03:14:11.708Z,14.80
2017-10-31T03:16:39.828Z,25.40
2017-10-31T03:19:07.980Z,18.07
2017-10-31T03:21:36.933Z,20.23
2017-10-31T03:24:05.073Z,17.50
2017-10-31T03:26:33.227Z,16.13
2017-10-31T03:29:01.367Z,16.27
2017-10-31T03:31:29.497Z,16.27
2017-10-31T03:33:57.622Z,16.80
2017-10-31T03:36:25.939Z,16.97
2017-10-31T03:38:54.091Z,24.90
2017-10-31T03:41:23.038Z,15.27
2017-10-31T03:43:51.179Z,15.40
2017-10-31T03:46:19.316Z,14.60
2017-10-31T03:48:47.449Z,14.70
2017-10-31T03:51:15.604Z,17.90
2017-10-31T03:53:43.810Z,26.17
2017-10-31T03:56:12.056Z,16.10
2017-10-31T03:58:40.952Z,21.60
2017-10-31T04:01:09.175Z,22.90
2017-10-31T04:03:38.077Z,19.73
2017-10-31T04:06:06.225Z,18.83
2017-10-31T04:08:34.391Z,17.60
2017-10-31T04:11:02.553Z,15.63
2017-10-31T04:13:30.669Z,17.43
2017-10-31T04:15:58.849Z,14.80
2017-10-31T04:18:26.980Z,14.97
2017-10-31T04:20:55.128Z,12.83
2017-10-31T04:23:23.456Z,9.57
2017-10-31T04:25:52.544Z,18.37
2017-10-31T04:28:20.701Z,14.93
2017-10-31T04:30:48.874Z,14.30
2017-10-31T04:33:17.090Z,20.87
2017-10-31T04:35:46.016Z,23.47
2017-10-31T04:38:14.155Z,13.50
2017-10-31T04:40:42.325Z,12.13
2017-10-31T04:43:10.530Z,13.83
2017-10-31T04:45:38.692Z,14.77
2017-10-31T04:48:06.858Z,11.20
2017-10-31T04:50:35.019Z,14.40
2017-10-31T04:53:03.136Z,14.77
2017-10-31T04:55:31.301Z,11.10
2017-10-31T04:57:59.488Z,16.83
2017-10-31T05:00:27.603Z,12.00
2017-10-31T05:02:56.556Z,12.60
2017-10-31T05:05:24.870Z,15.13
2017-10-31T05:07:53.004Z,17.70
2017-10-31T05:10:21.243Z,11.80
2017-10-31T05:12:49.349Z,21.73
2017-10-31T05:15:17.533Z,13.63
2017-10-31T05:17:45.688Z,18.27
2017-10-31T05:20:13.924Z,13.60
2017-10-31T05:22:42.164Z,22.33
2017-10-31T05:25:11.125Z,15.13
2017-10-31T05:27:39.279Z,17.50
2017-10-31T05:30:07.483Z,12.87
2017-10-31T05:32:36.447Z,14.63
2017-10-31T05:35:04.590Z,16.30
2017-10-31T05:37:32.813Z,16.67
2017-10-31T05:40:00.990Z,17.40
2017-10-31T05:42:29.868Z,17.17
2017-10-31T05:44:58.228Z,11.27
2017-10-31T05:47:26.578Z,12.53
2017-10-31T05:49:55.513Z,12.17
2017-10-31T05:52:23.936Z,15.27
2017-10-31T05:54:52.129Z,13.40
2017-10-31T05:57:21.005Z,10.80
2017-10-31T05:59:49.236Z,12.73
2017-10-31T06:02:17.419Z,9.40
2017-10-31T06:04:45.673Z,15.33
2017-10-31T06:07:14.679Z,12.90
2017-10-31T06:09:43.665Z,11.77
2017-10-31T06:12:12.069Z,11.17
2017-10-31T06:14:41.195Z,15.30
2017-10-31T06:17:10.412Z,17.93
2017-10-31T06:19:38.573Z,14.57
2017-10-31T06:22:12.516Z,10.17
2017-10-31T06:24:46.259Z,12.70
2017-10-31T06:27:20.852Z,7.37
2017-10-31T06:29:54.921Z,10.90
2017-10-31T06:32:23.124Z,8.50
2017-10-31T06:34:51.299Z,15.07
2017-10-31T06:37:19.525Z,11.10
2017-10-31T06:39:48.506Z,12.97
2017-10-31T06:42:17.404Z,12.87
2017-10-31T06:44:46.329Z,15.70
2017-10-31T06:47:14.601Z,11.33
2017-10-31T06:49:42.780Z,18.63
2017-10-31T06:52:10.919Z,12.73
2017-10-31T06:54:39.806Z,17.00
2017-10-31T06:57:08.988Z,21.20
2017-10-31T06:59:37.905Z,12.77
2017-10-31T07:02:06.082Z,12.47
2017-10-31T07:04:34.246Z,11.70
2017-10-31T07:07:02.387Z,9.07
2017-10-31T07:09:31.171Z,7.80
2017-10-31T07:11:59.343Z,7.70
2017-10-31T07:14:27.573Z,8.90
2017-10-31T07:16:55.786Z,9.97
2017-10-31T07:19:24.012Z,9.13
2017-10-31T07:21:52.185Z,16.03
2017-10-31T07:24:20.485Z,59.27
2017-10-31T07:26:48.730Z,34.07
2017-10-31T07:29:16.946Z,35.67
2017-10-31T07:31:45.933Z,27.23
2017-10-31T07:34:14.117Z,20.00
2017-10-31T07:36:42.413Z,25.97
2017-10-31T07:39:11.325Z,24.23
2017-10-31T07:41:39.485Z,17.53
2017-10-31T07:44:08.522Z,20.40
2017-10-31T07:46:38.044Z,20.10
2017-10-31T07:49:06.272Z,20.40
2017-10-31T07:51:34.991Z,18.33
2017-10-31T07:54:03.359Z,18.40
2017-10-31T07:56:31.533Z,24.77
2017-10-31T07:58:59.704Z,18.40
2017-10-31T08:01:27.896Z,16.97
2017-10-31T08:03:56.318Z,23.70
2017-10-31T08:06:25.242Z,27.87
2017-10-31T08:08:53.397Z,28.80
2017-10-31T08:11:22.388Z,31.43
2017-10-31T08:13:50.622Z,30.40
2017-10-31T08:16:18.812Z,28.80
2017-10-31T08:18:46.939Z,22.77
2017-10-31T08:21:15.193Z,25.07
2017-10-31T08:23:43.366Z,21.93
2017-10-31T08:26:11.544Z,22.90
2017-10-31T08:28:39.798Z,19.23
2017-10-31T08:31:08.010Z,26.67
2017-10-31T08:33:36.129Z,24.90
2017-10-31T08:36:05.223Z,19.07
2017-10-31T08:38:33.375Z,16.60
2017-10-31T08:41:01.645Z,34.80
2017-10-31T08:43:29.822Z,17.23
2017-10-31T08:45:58.142Z,22.73
2017-10-31T08:48:26.810Z,17.90
2017-10-31T08:50:54.962Z,16.23
2017-10-31T08:53:23.288Z,15.93
2017-10-31T08:55:51.561Z,24.17
2017-10-31T08:58:19.731Z,25.30
2017-10-31T09:00:47.932Z,23.30
2017-10-31T09:03:16.237Z,25.00
2017-10-31T09:05:44.498Z,22.70
2017-10-31T09:08:12.802Z,23.87
2017-10-31T09:10:41.113Z,25.63
2017-10-31T09:13:09.286Z,18.53
2017-10-31T09:15:37.544Z,24.37
2017-10-31T09:18:06.502Z,19.30
2017-10-31T09:20:35.560Z,23.60
2017-10-31T09:23:03.730Z,18.33
2017-10-31T09:25:31.941Z,25.53
2017-10-31T09:28:00.189Z,27.23
2017-10-31T09:30:28.319Z,22.30
2017-10-31T09:32:57.262Z,24.03
2017-10-31T09:35:25.543Z,72.70
2017-10-31T09:37:53.718Z,31.57
2017-10-31T09:40:22.651Z,29.40
2017-10-31T09:45:26.158Z,25.40
2017-10-31T09:47:54.381Z,47.73
2017-10-31T09:50:22.876Z,30.87
2017-10-31T09:52:51.800Z,27.43
2017-10-31T09:55:19.981Z,24.20
2017-10-31T09:57:48.986Z,24.87
2017-10-31T10:00:17.890Z,27.33
2017-10-31T10:02:46.829Z,26.50
2017-10-31T10:05:15.716Z,27.33
2017-10-31T10:07:43.953Z,29.70
2017-10-31T10:10:12.152Z,34.37
2017-10-31T10:12:40.278Z,27.57
2017-10-31T10:15:08.473Z,34.23
2017-10-31T10:17:37.501Z,36.70
2017-10-31T10:20:05.648Z,28.33
2017-10-31T10:22:34.562Z,31.73
2017-10-31T10:25:02.873Z,25.43
2017-10-31T10:27:31.016Z,28.30
2017-10-31T10:29:59.157Z,32.40
2017-10-31T10:32:28.096Z,37.57
2017-10-31T10:34:57.027Z,25.20
2017-10-31T10:37:26.288Z,35.93
2017-10-31T10:39:54.440Z,38.13
2017-10-31T10:42:22.735Z,32.63
2017-10-31T10:44:51.068Z,31.80
2017-10-31T10:47:19.279Z,24.03
2017-10-31T10:49:47.605Z,26.63
2017-10-31T10:52:15.823Z,27.73
2017-10-31T10:54:44.810Z,25.53
2017-10-31T10:57:12.956Z,30.27
2017-10-31T10:59:41.339Z,29.50
2017-10-31T11:02:09.516Z,35.83
2017-10-31T11:04:37.790Z,26.20
2017-10-31T11:07:06.009Z,36.23
2017-10-31T11:09:34.220Z,29.40
2017-10-31T11:12:03.121Z,33.83
2017-10-31T11:14:31.370Z,31.13
2017-10-31T11:16:59.503Z,30.67
2017-10-31T11:19:27.664Z,22.30
2017-10-31T11:21:55.824Z,21.47
2017-10-31T11:24:23.984Z,25.73
2017-10-31T11:26:52.943Z,20.10
2017-10-31T11:29:21.064Z,18.27
2017-10-31T11:31:49.245Z,31.07
2017-10-31T11:34:17.424Z,20.23
2017-10-31T11:36:45.623Z,20.87
2017-10-31T11:39:13.790Z,23.63
2017-10-31T11:41:42.045Z,25.90
2017-10-31T11:44:11.113Z,25.87
2017-10-31T11:46:40.059Z,25.63
2017-10-31T11:49:08.270Z,18.50
2017-10-31T11:51:37.439Z,26.27
2017-10-31T11:54:06.511Z,23.63
2017-10-31T11:56:34.637Z,27.70
2017-10-31T11:59:02.945Z,18.30
2017-10-31T12:01:31.249Z,27.93
2017-10-31T12:03:59.404Z,23.60
2017-10-31T12:06:27.629Z,24.90
2017-10-31T12:08:55.847Z,20.63
2017-10-31T12:11:23.999Z,17.63
2017-10-31T12:13:52.848Z,26.70
2017-10-31T12:16:21.087Z,13.07
2017-10-31T12:18:49.221Z,25.87
2017-10-31T12:21:18.162Z,18.03
2017-10-31T12:23:46.368Z,9.70
2017-10-31T12:26:14.565Z,17.17
2017-10-31T12:28:43.514Z,11.93
2017-10-31T12:31:11.739Z,11.40
2017-10-31T12:33:41.492Z,11.67
2017-10-31T12:36:09.639Z,13.17
2017-10-31T12:38:37.850Z,13.73
2017-10-31T12:41:06.005Z,12.37
2017-10-31T12:43:34.179Z,13.57
2017-10-31T12:46:03.993Z,13.03
2017-10-31T12:48:32.144Z,19.80
2017-10-31T12:51:00.568Z,18.90
2017-10-31T12:53:28.801Z,14.43
2017-10-31T12:55:56.969Z,15.50
2017-10-31T12:58:25.150Z,15.47
2017-10-31T13:00:53.350Z,14.40
2017-10-31T13:03:21.497Z,13.30
2017-10-31T13:05:49.780Z,18.87
2017-10-31T13:08:17.973Z,16.57
2017-10-31T13:10:46.135Z,13.03
2017-10-31T13:13:14.304Z,18.90
2017-10-31T13:15:42.473Z,14.33
2017-10-31T13:18:10.609Z,12.40
2017-10-31T13:20:39.570Z,17.37
2017-10-31T13:23:07.742Z,12.60
2017-10-31T13:25:35.882Z,12.83
2017-10-31T13:28:05.120Z,11.53
2017-10-31T13:30:33.643Z,19.37
2017-10-31T13:33:03.937Z,16.70
2017-10-31T13:35:32.423Z,14.83
2017-10-31T13:38:00.882Z,11.33
2017-10-31T13:40:29.547Z,17.13
2017-10-31T13:42:58.098Z,12.13
2017-10-31T13:45:26.288Z,12.93
2017-10-31T13:47:55.094Z,11.80
2017-10-31T13:50:23.368Z,14.37
2017-10-31T13:52:51.570Z,19.40
2017-10-31T13:55:20.709Z,15.87
2017-10-31T13:57:48.883Z,13.93
2017-10-31T14:00:18.618Z,15.63
2017-10-31T14:02:47.900Z,17.57
2017-10-31T14:05:17.551Z,12.60
2017-10-31T14:07:46.796Z,15.63
2017-10-31T14:10:15.330Z,13.33
2017-10-31T14:12:44.138Z,17.33
2017-10-31T14:15:12.391Z,14.53
2017-10-31T14:17:40.621Z,15.37
2017-10-31T14:20:09.126Z,16.03
2017-10-31T14:22:38.145Z,21.90
2017-10-31T14:25:06.400Z,17.00
2017-10-31T14:27:34.661Z,15.13
2017-10-31T14:30:02.961Z,15.87
2017-10-31T14:32:35.223Z,9.60
2017-10-31T14:35:03.896Z,17.30
2017-10-31T14:37:32.858Z,19.40
2017-10-31T14:40:01.126Z,18.80
2017-10-31T14:42:30.364Z,14.13
2017-10-31T14:45:00.052Z,9.33
2017-10-31T14:47:28.276Z,10.47
2017-10-31T14:49:56.547Z,12.97
2017-10-31T14:52:26.712Z,11.20
2017-10-31T14:54:54.873Z,13.70
2017-10-31T14:57:23.058Z,12.70
2017-10-31T14:59:51.315Z,9.63
2017-10-31T15:02:19.550Z,13.70
2017-10-31T15:04:48.502Z,10.10
2017-10-31T15:07:16.727Z,13.90
2017-10-31T15:09:48.824Z,10.63
2017-10-31T15:12:17.109Z,8.43
2017-10-31T15:14:45.333Z,13.37
2017-10-31T15:17:13.497Z,10.00
2017-10-31T15:19:41.777Z,12.37
2017-10-31T15:22:09.996Z,11.23
2017-10-31T15:24:38.204Z,10.90
2017-10-31T15:27:06.443Z,13.20
2017-10-31T15:29:34.639Z,11.23
2017-10-31T15:32:02.926Z,12.67
2017-10-31T15:34:31.138Z,9.50
2017-10-31T15:37:00.803Z,9.07
2017-10-31T15:39:29.261Z,9.30
2017-10-31T15:41:57.739Z,13.63
2017-10-31T15:44:27.499Z,7.97
2017-10-31T15:46:56.499Z,9.23
2017-10-31T15:49:24.729Z,9.80
2017-10-31T15:51:53.452Z,12.70
2017-10-31T15:54:22.492Z,18.37
2017-10-31T15:56:50.695Z,11.07
2017-10-31T16:01:53.320Z,9.53
2017-10-31T16:04:21.490Z,10.10
2017-10-31T16:06:49.673Z,11.67
2017-10-31T16:09:19.195Z,12.63
2017-10-31T16:11:47.410Z,10.23
2017-10-31T16:14:16.379Z,10.87
2017-10-31T16:16:44.668Z,13.30
2017-10-31T16:19:13.593Z,10.93
2017-10-31T16:21:41.838Z,19.90
2017-10-31T16:24:10.786Z,14.20
2017-10-31T16:26:39.140Z,25.37
2017-10-31T16:29:07.310Z,11.70
2017-10-31T16:31:35.490Z,9.30
2017-10-31T16:34:03.800Z,11.57
2017-10-31T16:36:31.985Z,16.87
2017-10-31T16:39:00.217Z,12.33
2017-10-31T16:41:28.578Z,14.00
2017-10-31T16:43:56.916Z,10.07
2017-10-31T16:46:25.119Z,17.20
2017-10-31T16:48:53.319Z,11.60
2017-10-31T16:51:21.669Z,12.67
2017-10-31T16:53:49.877Z,11.87
2017-10-31T16:56:18.138Z,11.53
2017-10-31T16:58:46.362Z,23.97
2017-10-31T17:01:14.581Z,15.43
2017-10-31T17:03:43.480Z,19.47
2017-10-31T17:06:11.779Z,17.80
2017-10-31T17:08:40.078Z,10.03
2017-10-31T17:11:09.485Z,10.60
2017-10-31T17:13:38.681Z,9.60
2017-10-31T17:16:07.689Z,8.30
2017-10-31T17:18:35.999Z,13.57
2017-10-31T17:21:04.191Z,12.83
2017-10-31T17:23:33.104Z,6.90
2017-10-31T17:26:01.389Z,11.33
2017-10-31T17:28:29.566Z,16.67
2017-10-31T17:30:57.734Z,11.07
2017-10-31T17:33:25.989Z,10.97
2017-10-31T17:35:54.997Z,23.13
2017-10-31T17:38:23.172Z,12.60
2017-10-31T17:40:51.391Z,10.43
2017-10-31T17:43:19.678Z,11.43
2017-10-31T17:45:47.895Z,11.03
2017-10-31T17:48:16.096Z,16.23
2017-10-31T17:50:44.461Z,14.80
2017-10-31T17:53:13.833Z,11.00
2017-10-31T17:55:42.006Z,16.60
2017-10-31T17:58:10.180Z,18.13
2017-10-31T18:00:38.382Z,14.53
2017-10-31T18:03:06.622Z,27.10
2017-10-31T18:05:34.797Z,36.10
2017-10-31T18:08:03.012Z,56.90
2017-10-31T18:10:31.206Z,45.53
2017-10-31T18:12:59.376Z,39.43
2017-10-31T18:15:27.604Z,49.97
2017-10-31T18:17:55.784Z,28.47
2017-10-31T18:20:23.960Z,29.70
2017-10-31T18:22:52.124Z,20.47
2017-10-31T18:25:20.299Z,16.87
2017-10-31T18:27:48.520Z,19.43
2017-10-31T18:30:16.801Z,19.33
2017-10-31T18:32:45.011Z,18.90
2017-10-31T18:35:13.184Z,19.27
2017-10-31T18:37:41.368Z,28.27
2017-10-31T18:40:09.536Z,26.67
2017-10-31T18:42:38.489Z,21.80
2017-10-31T18:45:08.174Z,20.43
2017-10-31T18:47:36.346Z,25.37
2017-10-31T18:50:04.554Z,20.43
2017-10-31T18:52:33.627Z,23.00
2017-10-31T18:55:01.832Z,22.57
2017-10-31T18:57:30.831Z,22.13
2017-10-31T18:59:59.101Z,21.70
2017-10-31T19:02:28.056Z,34.70
2017-10-31T19:04:56.247Z,19.10
2017-10-31T19:07:24.411Z,26.13
2017-10-31T19:09:52.616Z,22.10
2017-10-31T19:12:21.550Z,20.83
2017-10-31T19:14:50.509Z,22.13
2017-10-31T19:17:18.689Z,18.63
2017-10-31T19:19:46.874Z,14.47
2017-10-31T19:22:15.068Z,15.53
2017-10-31T19:24:43.244Z,16.50
2017-10-31T19:27:12.199Z,18.20
2017-10-31T19:29:40.397Z,21.13
2017-10-31T19:32:08.596Z,18.13
2017-10-31T19:34:37.547Z,20.50
2017-10-31T19:37:05.728Z,20.33
2017-10-31T19:39:35.620Z,18.73
2017-10-31T19:42:03.795Z,28.33
2017-10-31T19:44:31.978Z,25.43
2017-10-31T19:47:00.136Z,23.23
2017-10-31T19:49:28.349Z,27.03
2017-10-31T19:51:56.527Z,29.57
2017-10-31T19:54:25.471Z,23.20
2017-10-31T19:56:54.042Z,21.37
2017-10-31T19:59:22.250Z,20.83
2017-10-31T20:01:50.431Z,17.00
2017-10-31T20:04:18.604Z,20.93
2017-10-31T20:06:46.778Z,21.13
2017-10-31T20:09:14.994Z,22.30
2017-10-31T20:11:44.909Z,24.00
2017-10-31T20:14:13.916Z,26.13
2017-10-31T20:16:42.116Z,20.23
2017-10-31T20:19:10.281Z,41.70
2017-10-31T20:21:38.510Z,47.80
2017-10-31T20:24:07.528Z,34.50
2017-10-31T20:26:35.712Z,42.47
2017-10-31T20:29:03.884Z,36.30
2017-10-31T20:31:32.083Z,33.60
2017-10-31T20:34:00.252Z,29.87
2017-10-31T20:36:28.405Z,27.37
2017-10-31T20:38:56.600Z,25.20
2017-10-31T20:41:24.799Z,22.30
2017-10-31T20:43:52.994Z,20.00
2017-10-31T20:46:21.159Z,18.43
2017-10-31T20:48:50.135Z,31.90
2017-10-31T20:51:18.290Z,22.93
2017-10-31T20:53:46.522Z,25.13
2017-10-31T20:56:15.470Z,24.03
2017-10-31T20:58:43.672Z,25.10
2017-10-31T21:01:11.871Z,20.53
2017-10-31T21:03:40.063Z,19.00
2017-10-31T21:06:08.274Z,25.23
2017-10-31T21:08:36.464Z,26.03
2017-10-31T21:11:05.415Z,26.83
2017-10-31T21:13:34.368Z,22.20
2017-10-31T21:16:02.532Z,21.83
2017-10-31T21:18:30.756Z,24.40
2017-10-31T21:20:58.906Z,21.47
2017-10-31T21:23:27.122Z,17.90
2017-10-31T21:25:56.091Z,20.67
2017-10-31T21:28:24.275Z,19.67
2017-10-31T21:30:52.438Z,20.00
2017-10-31T21:33:20.731Z,17.80
2017-10-31T21:35:48.926Z,22.23
2017-10-31T21:38:17.106Z,22.83
2017-10-31T21:40:46.022Z,26.87
2017-10-31T21:43:14.201Z,23.87
2017-10-31T21:45:42.371Z,20.10
2017-10-31T21:48:10.538Z,16.10
2017-10-31T21:50:38.722Z,19.70
2017-10-31T21:53:06.893Z,16.60
2017-10-31T21:55:35.098Z,16.27
2017-10-31T21:58:04.013Z,20.13
2017-10-31T22:00:32.961Z,20.23
2017-10-31T22:03:01.901Z,19.03
2017-10-31T22:05:30.887Z,16.13
2017-10-31T22:07:59.864Z,19.03
2017-10-31T22:10:28.084Z,17.37
2017-10-31T22:12:56.269Z,19.57
2017-10-31T22:15:24.463Z,22.87
2017-10-31T22:17:52.637Z,21.20
2017-10-31T22:20:20.832Z,28.40
2017-10-31T22:22:49.045Z,23.27
2017-10-31T22:25:17.250Z,20.07
2017-10-31T22:27:45.427Z,15.63
2017-10-31T22:30:13.596Z,17.43
2017-10-31T22:32:41.743Z,26.80
2017-10-31T22:35:09.956Z,21.73
2017-10-31T22:37:38.148Z,22.60
2017-10-31T22:40:06.394Z,21.83
2017-10-31T22:42:34.580Z,21.60
2017-10-31T22:45:03.521Z,22.90
2017-10-31T22:47:31.669Z,22.63
2017-10-31T22:50:00.644Z,34.30
2017-10-31T22:52:28.793Z,29.20
2017-10-31T22:54:57.006Z,27.80
2017-10-31T22:57:25.969Z,31.13
2017-10-31T22:59:54.117Z,24.13
2017-10-31T23:02:22.288Z,24.63
2017-10-31T23:04:50.443Z,24.30
2017-10-31T23:07:19.382Z,19.27
2017-10-31T23:09:47.565Z,19.83
2017-10-31T23:12:15.744Z,16.60
2017-10-31T23:14:43.941Z,19.70
2017-10-31T23:17:12.886Z,22.80
2017-10-31T23:19:41.048Z,25.90
2017-10-31T23:22:09.200Z,22.80
2017-10-31T23:24:37.385Z,23.43
2017-10-31T23:27:05.597Z,19.57
2017-10-31T23:29:33.782Z,24.30
2017-10-31T23:32:01.941Z,21.50
2017-10-31T23:34:30.164Z,16.30
2017-10-31T23:36:59.166Z,20.43
2017-10-31T23:39:27.334Z,24.67
2017-10-31T23:41:55.617Z,18.90
2017-10-31T23:44:23.787Z,18.50
2017-10-31T23:46:51.964Z,21.10
2017-10-31T23:49:20.124Z,19.77
2017-10-31T23:51:48.383Z,27.60
2017-10-31T23:54:17.320Z,24.37
2017-10-31T23:56:45.523Z,24.83
2017-10-31T23:59:13.696Z,25.33
